In Rescue
 
Open Full Screen Window  High Contrast Mode
Wind Gusting 00 knots
08
April 02, 2020 11:26 PM CDT
Present Weather: Light Snow
Weather Information
Wind Direction
  300 °
Wind Speed
  08 kt (9 mph)
Wind Gust
  00 kt (0 mph)
Altimeter
29.94 in
Visibility
4 SM
Temperature
-03° C
27° F
Dewpoint
-03° C
27° F
Humidity
100%
1hr Rain Fall
00.02 in.
24hr Rain Fall
00.19 in.
Sky Condition
Overcast @ 1,800 ft
Broken @ 1,100 ft
MVFR

METAR KADC 030426Z AUTO 30008KT 4SM -SN BKN011 OVC018 M03/M03 A2994 RMK AO2 P0002 P0002

FAA Disclaimer: The data displayed is for advisory purposes only and is not to be used for flight planning or operations.